38TH ANNUAL TRANS TAHOE RELAYS
Lake Tahoe, Nevada/California 07/19/2014


********** DIVISION RESULTS LIST **************

ELITE RESULTS

Place O'All Team Name Boat# Time Pace
1 1 TAHOE ELEVEN MILERS George Tidmarsh 4 3:18:06 19:49
2 3 BAC JURASSIC PARK Todd Arris 5 3:29:30 20:57
3 10 CATALINA WINE MIXER Patrick Woodruff 7 3:46:54 22:42
4 14 TEAM FINIS Luane Rowe 3 3:51:44 23:11
5 15 TEAM SWIMSPRAY Peter Wong 8 3:51:57 23:12
6 27 POOHSTRONG V Brian Mirkovich 2 3:57:43 23:47
7 72 SEYMOUR MOON AND THE SWINGING TUNA' Lee Anne Ghimenti 1 4:20:23 26:03

OPEN RESULTS

Place O'All Team Name Boat# Time Pace
1 4 OLYMPIC CLUB A Douwe Yntema 1334 3:35:12 21:32
2 18 KRISSY AND THE MANIMALS Thomas Adams 1301 3:53:20 23:20
3 23 KNAPP TIME Brian Rodde 1326 3:56:40 23:40
4 24 ROCK BOTTOM David Holmes 1317 3:56:53 23:42
5 32 ARDEN HILLS A TEAM Sean Allen 1303 4:00:27 24:03
6 36 TVM - THE PHAT AND THE FURIOUS Glenn Abersold 1300 4:02:52 24:18
7 39 NBA ORIGINALS John Harlow 1313 4:05:57 24:36
8 47 TEAM DELTA BEAVER Josh Mix 1324 4:07:49 24:47
9 52 SWIMHOW.COM Meghan O'Brien 1325 4:09:05 24:55
10 58 FASTER THAN DRIFTWOOD Annette Chinn 1306 4:12:55 25:18
11 59 SHIVERING TIMBERS VII Thomas Anderson 1333 4:13:51 25:24
12 66 COCKED AGAIN XVIII Tom Schatz 1328 4:18:22 25:51
13 69 ALLIGATOR GAR Randy Franke 1311 4:19:58 26:00
14 75 ANGRIER TUNAS Mark Lutzker 1322 4:22:03 26:13
15 76 TVM - MAN OVERBOARD Jenna Silva 1329 4:23:05 26:19
16 84 THE PIRATES Griffith Helfrich 1315 4:29:40 26:58
17 95 WE TALKIN' ABOUT PRACTICE? I'M TALK Forrest Christo 1307 4:36:57 27:42
18 98 MIKE. MIKE. MIKE. WHAT DAY IS IT? Joe Dowd 1309 4:37:35 27:46
19 100 AQUA BOGGIE Ouida Liu 1321 4:38:36 27:52
20 102 NORTH BAY NAUTIGALS Michelle Cherrick 1305 4:38:48 27:53
21 106 SLIPPERY WHEN WET Lucy Johns 1318 4:40:21 28:03
22 113 CAPITAL PUNISHMENT William Sullivan 1330 4:42:36 28:16
23 122 SLEEPY HOLLOW SLOWPOKES Jock Christie 1336 4:45:09 28:31
24 127 KEEP STROKING SWEETIE...WE'RE ALMOS Michelle Johnson 1319 4:48:01 28:49
25 129 LODI MASTERS James Cotta 1308 4:48:33 28:52
26 155 2ND LEG NAKED NBA Geoffrey Koblick 1320 4:58:32 29:52
27 157 LAKE DOLPHINS Lindsay Rodgers 1327 5:00:37 30:04
28 161 12,000 STROKES Henry Chan 1304 5:07:51 30:48
29 168 TAPER TOMORROW James Ernst 1310 5:12:15 31:14
30 193 TEAM RIPTIDE Shelly Taylor 1331 5:31:02 33:07
31 198 WET BANDITS James Aicardi 1302 5:37:46 33:47
32 202 JUST KEEP SWIMMING Kate Martin 1323 5:42:18 34:14
33 204 TAHOE SWAVENGIN SWASHBUCKLERS Liz Tebbutt 1332 5:45:37 34:34
34 205 PERSISTENCE David Harris 1314 5:48:37 34:52

WOMEN 114+ RESULTS

Place O'All Team Name Boat# Time Pace
1 7 #ONABOAT Katherine Raatz 104 3:39:00 21:54
2 31 SIXY LADIES Erin Grimm 102 4:00:02 24:01
3 34 IRON BABES 2 Danielle Garcia 101 4:01:50 24:11
4 87 CMS SWAMMERS Alli Lathrope 103 4:33:22 27:21
5 125 CAL-TEXETTES Regina Roach 105 4:47:43 28:47
6 133 SIX PACK Jamie Firth 100 4:50:07 29:01
7 190 PINK TACOS Angelina Calderone 106 5:28:36 32:52

WOMEN 180+ RESULTS

Place O'All Team Name Boat# Time Pace
1 40 TOC WOMEN 180+ Naoko Watanabe 208 4:06:18 24:38
2 51 MICHIGANDER GALS Amanda Mercer 204 4:08:36 24:52
3 62 LADY PRINCETON TIGERS Tara Martin 203 4:16:33 25:40
4 63 HIGH OCTANE BABES Abby Pledger 205 4:17:14 25:44
5 103 BLACK AND WHITE TAILED BALLERS Emily Cosse 200 4:39:38 27:58
6 111 SUPER HEROES IN TRAINING AKA SHIT Melissa Rhoads 206 4:42:05 28:13
7 131 GRAY TEAM Alisa Gray 201 4:49:02 28:55
8 136 THE FLABONGOS Chelsea Siciliano 207 4:52:11 29:14
9 194 THIRD TIME'S A SASS! Lindsey Kalkbrenner 202 5:33:07 33:19

WOMEN 240+ RESULTS

Place O'All Team Name Boat# Time Pace
1 5 BAY AREA BABES III Katie Glenn 303 3:36:37 21:40
2 57 WATER WE THINKING? Cindy Hajost 305 4:12:15 25:14
3 64 HYPOTHERMIC HEAT Deborah McFerron 307 4:18:08 25:49
4 85 SUITS OPTIONAL Denise Edwards 301 4:30:58 27:06
5 108 TRANS TAHOE TESSIE TEMPRESSES Dina Hall 306 4:40:32 28:04
6 132 BAD ASS BABES Nicole Gardner 302 4:49:07 28:55
7 176 LAMORINDA LADIES Julie Oliver 308 5:14:22 31:27
8 183 MORNING HOTTIES Kirsten Plomgren 309 5:21:45 32:11
9 192 KELLER COVE SEA OTTERS Asha Allen-Roth 300 5:30:33 33:04
10 206 GILL GALS Beth Goldstein 304 5:49:25 34:57

WOMEN 300+ RESULTS

Place O'All Team Name Boat# Time Pace
1 67 TITS OF STEEL Caren Mc Namara 406 4:18:24 25:51
2 126 BAY BROWNBACKS Laurie Lewis 405 4:47:54 28:48
3 158 BIG TAHUNAS Marcy Michael 407 5:01:23 30:09
4 172 FROSTITS Janet Beegle 402 5:12:55 31:18
5 197 THE TAHOE FLOW HO'S Ann Kight 404 5:36:29 33:39

MEN 114+ RESULTS

Place O'All Team Name Boat# Time Pace
1 30 BONER JAMS Egan Gans 502 3:59:41 23:59
2 42 TEAM WADDLEBIRD Kevin Platshon 506 4:06:59 24:42
3 48 THE CHIEFS Ryan McCarthy 504 4:07:55 24:48
4 49 FIVE BEARS AND A HAT Bryan Schnugg 508 4:08:09 24:49
5 53 HWBF IV Mike Sample 507 4:09:07 24:55
6 80 TRANS GENERALS James Mayfield 503 4:24:24 26:27
7 118 STAGASIM Stephen Andron 500 4:43:15 28:20
8 123 TCG I Ted Augustine 501 4:45:52 28:36

MEN 180+ RESULTS

Place O'All Team Name Boat# Time Pace
1 6 TVM LOS CHULOS Bill Mc Cracken 609 3:37:41 21:47
2 11 FLANAGAN'S SHENANIGANS Cameron Hamilton 605 3:47:58 22:48
3 20 NOT FROM CONCENTRATE Brian Villarreal 612 3:55:05 23:31
4 22 TEAM ANXIETY Eric Foster 604 3:55:52 23:36
5 46 PIES DO TAHOE Tyler Krikorian 608 4:07:36 24:46
6 68 FLOATING HIPPOS Sean Flynn 603 4:18:38 25:52
7 71 #FATGREENTIGERS Jon Kenyon 607 4:20:23 26:03
8 73 SHALLOW END LIFEGUARDS Lee Ryan 611 4:20:50 26:05
9 78 LANE 8 Alexander Niehenke 610 4:23:23 26:21
10 88 TEAM JUNE Stephen June 606 4:33:31 27:22
11 167 GRAPES AND BABY CARROTS Ian Bannister 601 5:11:30 31:09
12 170 A- TEAM Paul Akin 600 5:12:26 31:15

MEN 240+ RESULTS

Place O'All Team Name Boat# Time Pace
1 12 JURASSIC PARK 2: THE LOST WORLD James Collins 708 3:51:08 23:07
2 19 TOC TAM HS Kurt Oeler 720 3:53:29 23:21
3 21 MICHIGAN BIG CHILLERS Michael Dempsey 709 3:55:21 23:33
4 25 TOC FRANKIE SAYS RELAX Mike Keck 714 3:57:03 23:43
5 35 COLD MOMENTUM John Schwenger 724 4:02:11 24:14
6 37 BONEHEADS Leif Calvin 706 4:04:06 24:25
7 41 6 GUYS...1 BOAT David Donovan 711 4:06:54 24:42
8 43 MENLO MAD DOGS Bruce Bower 702 4:07:10 24:43
9 65 LOS TIBURONES LOCOS Colin Murray 719 4:18:15 25:50
10 70 HAPPY 60 HAEDRICH Bill Haedrich 712 4:19:58 26:00
11 82 TEAM BENOIT Dan Benoit 701 4:27:18 26:44
12 86 TAHOE TRENCHERS Patrick Lee 716 4:31:07 27:07
13 93 TSUNAMI TRES Gabriel Speyer 725 4:35:21 27:33
14 96 TEAM SWIM CAMP Doug Overman 721 4:37:22 27:45
15 105 BEERS BEFORE NOON Matt Harrington 713 4:40:04 28:01
16 121 CHANNEL BOUND Steve Carlson 707 4:43:55 28:24
17 143 BCP THRASHERS Jeffrey Lally 715 4:54:57 29:30
18 148 TSUNAMI'S MILE HIGH CLUB Kieron Leslie 717 4:56:38 29:40
19 150 LAPIDIBUS James Murphy 718 4:57:02 29:43
20 151 TAHOEBLUES Tony Stais 726 4:57:02 29:43
21 152 BRAWNY BEACH BOYS (PCCM) Fernando Bravo 703 4:57:24 29:45
22 154 CALIFORNIA RAISINS Michael Brown 705 4:57:46 29:47
23 160 LOVE D'EM HANDLES Patrick Devlin 710 5:04:58 30:30
24 174 THE OLD GUARD Drew Sanders 723 5:14:02 31:25
25 175 BROGAN AND SON SPLASHERS Aidan Brogan 704 5:14:18 31:26
26 177 6 PHLOTON TORPEDOES David Robin 722 5:15:30 31:33
27 180 6 CLYDESDALES AND NO JOCKIES Todd Tuescher 728 5:17:58 31:48
28 181 FLOATERS Matthew Tarzon 727 5:18:05 31:49

MEN 300+ RESULTS

Place O'All Team Name Boat# Time Pace
1 8 STANFORD MASTERS MEN'S 300 James Kemp 803 3:40:26 22:03
2 13 TEAM JOHNSON Darryl Johnson 802 3:51:34 23:10
3 156 (USED TO BE) EARLY RISERS Joseph Ferrero 800 5:00:24 30:03

MEN 360+ RESULTS

Place O'All Team Name Boat# Time Pace
1 29 STANFORD MASTERS' 60S Tim Broderick 1600 3:59:35 23:58
2 92 SAN MATEO MASTERS 360+ Frank Elliott 1601 4:35:15 27:32
3 124 OAKWOOD TRUNKS Don Tatzin 1604 4:46:45 28:41
4 138 RUDY PLUS 5 Edward Rudloff 1603 4:53:15 29:20
5 142 BOAT FULL OF SEMAN COMES AGAIN Chuck Kight 1602 4:54:53 29:30

MIXED 114+ RESULTS

Place O'All Team Name Boat# Time Pace
1 55 TVM BAD ASS LIME A RITA BOAT! Loren Pearson 901 4:10:28 25:03
2 97 TESSIE'S WORST NIGHTMARE Stephen Sampson 902 4:37:22 27:45
3 196 KEEP TAHOE BLUE Seth Chanin 900 5:34:04 33:25

MIXED 180+ RESULTS

Place O'All Team Name Boat# Time Pace
1 9 THE FLOTSAM WARRIORS Erin Hunter 1006 3:43:22 22:21
2 16 TVM- TIM'S OVERBOARD Mary Ann Nygren 1010 3:52:17 23:14
3 17 TEACH ME HOW TO DOUGIE Jillian Silva 1013 3:53:11 23:20
4 28 TEAM OMARA Timothy O'Mara 1011 3:58:59 23:54
5 33 SWIMMIN' SHARKIES Amy Sitzmann 1014 4:00:56 24:06
6 45 SOFA KING AWESOME Scott Blasingame 1001 4:07:34 24:46
7 77 TEAM TUHOLSKI Walter Tuholski 1016 4:23:11 26:20
8 94 ROCKY POINT RACERS Andrew Steinheimer 1018 4:36:27 27:39
9 112 SALTY BUT NICE Kendra Ksiazek 1008 4:42:14 28:14
10 117 FIRE BREATHING RUBBER DUCKIES Rachel Wills 1017 4:43:08 28:19
11 141 TEAM LEIGINGER Evan Lieginger 1009 4:54:18 29:26
12 144 UNHEALTHY DRINKING BEHAVIOR James Kirchberg 1007 4:55:06 29:31
13 145 FRIED ZUCCHINI STICKS Ali Hartwell 1005 4:55:44 29:35
14 153 HOMEWOOD HOMEYS Chris Beeman 1000 4:57:43 29:47
15 179 A FAMILY STONE Jon Stone 1015 5:17:48 31:47
16 188 IRISH LADS AND LASSIES Chips Conlon 1002 5:25:58 32:36
17 189 TVM-FROZEN PARTS Kerri Hansen 1004 5:26:50 32:41
18 195 LUNCH FOR THE SEALIONS Jenny Frost 1003 5:33:07 33:19
19 201 BEER VIEW MIRROR Patrick Reid 1012 5:40:05 34:01

MIXED 240+ RESULTS

Place O'All Team Name Boat# Time Pace
1 54 TAKIN' TESSIE II Bonnie Benjamin 1019 4:09:26 24:57
2 56 SWIMMING STRAIGHT TO THE FINISH LIN Paula James 1113 4:10:53 25:06
3 79 JUST FOR JUSTIN I Monica Cathcart 1105 4:24:17 26:26
4 81 DBAFP(A) Ted Mulvaney 1115 4:26:09 26:37
5 83 TOO BAD ASS TO FAIL David Summa 1117 4:27:46 26:47
6 89 FAT ALEX AND FRIENDS! Alex Taft 1118 4:33:50 27:23
7 91 THE FOLSOM FAB SIX Steve Hern 1112 4:35:05 27:31
8 101 TOC THOMPSON Amy Thompson 1120 4:38:48 27:53
9 110 MIGHTY MUDSHARKS Roger Cassidy 1104 4:41:11 28:08
10 115 C U NEXT TUESDAY Brandon Drew 1109 4:42:53 28:18
11 119 CHUNKY DUNKERS Elizabeth Glass 1110 4:43:43 28:23
12 120 JUST FOR JUSTIN II Larry Countryman 1107 4:43:46 28:23
13 135 SHARKS AND MINNOWS Anthony Bourke 1102 4:52:10 29:13
14 137 TEAM TANGO Nina Natina 1116 4:52:21 29:15
15 147 CLAREMONT OVER UNDERS Daniel Dell'osso 1108 4:56:35 29:40
16 159 WILL SWIM FOR PIE Bill Hammond 1111 5:03:00 30:18
17 162 GOLDEN GILLED WATER CHEETAHS Ralph Brott 1103 5:08:03 30:49
18 178 THE CITY SHARKS John Devine 1121 5:16:56 31:42
19 184 ANGRY DOLPHINS Jeff Temple 1119 5:22:56 32:18
20 191 AU AU J Patrick Mc Carthy 1114 5:29:18 32:56

MIXED 300+ RESULTS

Place O'All Team Name Boat# Time Pace
1 26 BAC LEFTOVERS Steve Pratt 1206 3:57:27 23:45
2 38 CLUB HOT TUBBIES AND HOTTIES Jim McDonald 1203 4:05:52 24:36
3 44 TAHOEPAIS Richard Burns 1201 4:07:33 24:46
4 50 VACAVILLE SWIM CLUB DEEP SIX David Stewart 1207 4:08:15 24:50
5 60 TVM- FELLOWSHIP OF RACHAEL'S RING Steve Toschi 1210 4:15:12 25:32
6 61 TAHOE BLUE GOOSE BUMPS Celeste Miller 1204 4:16:06 25:37
7 74 SKIP AND GO NAKED Patti Bauernfeind 1200 4:21:02 26:07
8 90 AGED TO PERFECTION David Hoover 1202 4:34:27 27:27
9 139 TIE DYE TORPEDO'S Paul Stock 1208 4:53:41 29:23
10 164 PIGBUSTERS Joseph Omran 1205 5:10:42 31:05
11 173 HERE WE GO AGAIN! Candace Wilson 1212 5:13:32 31:22
12 186 MISFITS Lisa Vencill 1211 5:25:27 32:33
13 203 SUN & FUN Maggie Tevis 1209 5:42:55 34:18

MIXED 360+ RESULTS

Place O'All Team Name Boat# Time Pace
1 99 OFFSHORE ANGRY TUNA Deborah Newton 1701 4:37:46 27:47
2 130 AQUA NUTS Carol Ogilvie 1702 4:48:56 28:54

JUST FOR FUN RESULTS

Place O'All Team Name Boat# Time Pace
1 104 BLUE FOOTERS Scott Lyle 1413 4:39:59 28:00
2 107 SDC John Clay 1403 4:40:23 28:03
3 109 TEAM CINIMINI Rebecca Corson 1404 4:40:38 28:04
4 114 NOT TOO OLD, WITH KIDS Michael Scott 1416 4:42:49 28:17
5 116 THE FIRE-BREATHING DRAGONS Lauren Davis 1405 4:43:07 28:19
6 128 SAVAGES Peter Giacalone 1408 4:48:22 28:51
7 134 TRUCKEE SWIMMERS Eric Beckert 1400 4:50:22 29:03
8 140 MOUNTAIN HOUGHTONS - SOULSBYVILLE 7 Mark Houghton 1421 4:54:05 29:25
9 146 EXTREME MODERATION Karen Drucker 1406 4:56:09 29:37
10 149 KEEP OUR TAB OPEN George Giles 1409 4:56:42 29:41
11 163 BRAIN FREEZE Christi Wilson 1419 5:09:41 30:59
12 165 LAKE TAHOE MASTER John Steinmetz 1417 5:11:20 31:08
13 166 WINERS Stephanie Lapachet 1412 5:11:22 31:09
14 169 TRANCE TAHOE V Mark Kniesche 1411 5:12:17 31:14
15 171 FLYING PENQUINS Thomas Murphy 1414 5:12:52 31:18
16 182 LADERA OAKS LAKERS-LOL! Holly Tambling 1418 5:21:32 32:10
17 185 GUPPY CLUB Greg Geibel 1407 5:25:16 32:32
18 187 JUST KEEP SWIMMING Beverly Blach 1401 5:25:37 32:34
19 199 X-RAYTED PHLOTONS James Safranek 1415 5:38:36 33:52
20 200 BUCKET LIST Michael Hecker 1410 5:38:57 33:54